createdAt,value
2019-06-08T00:02:12.592Z,80.30
2019-06-08T00:04:41.598Z,80.20
2019-06-08T00:07:10.901Z,80.50
2019-06-08T00:09:40.195Z,80.00
2019-06-08T00:12:09.571Z,79.80
2019-06-08T00:14:38.302Z,79.90
2019-06-08T00:17:07.103Z,79.90
2019-06-08T00:19:35.858Z,79.80
2019-06-08T00:22:06.818Z,79.90
2019-06-08T00:24:35.818Z,79.90
2019-06-08T00:27:08.837Z,79.90
2019-06-08T00:29:38.100Z,80.10
2019-06-08T00:32:06.882Z,80.70
2019-06-08T00:34:35.823Z,80.40
2019-06-08T00:37:05.130Z,80.30
2019-06-08T00:39:33.854Z,80.30
2019-06-08T00:42:02.659Z,80.10
2019-06-08T00:44:31.484Z,81.20
2019-06-08T00:47:00.457Z,80.90
2019-06-08T00:49:29.535Z,81.00
2019-06-08T00:51:58.879Z,80.90
2019-06-08T00:54:29.723Z,80.90
2019-06-08T00:56:58.706Z,80.70
2019-06-08T00:59:27.439Z,81.00
2019-06-08T01:01:56.284Z,80.80
2019-06-08T01:04:25.047Z,80.50
2019-06-08T01:06:54.086Z,80.60
2019-06-08T01:09:22.835Z,81.10
2019-06-08T01:11:51.556Z,80.80
2019-06-08T01:14:20.890Z,81.30
2019-06-08T01:16:49.668Z,81.60
2019-06-08T01:19:19.198Z,80.70
2019-06-08T01:21:48.373Z,80.60
2019-06-08T01:24:17.188Z,80.50
2019-06-08T01:26:45.893Z,80.20
2019-06-08T01:29:14.610Z,80.60
2019-06-08T01:31:43.349Z,80.30
2019-06-08T01:34:12.049Z,80.40
2019-06-08T01:36:40.751Z,80.30
2019-06-08T01:39:09.480Z,80.30
2019-06-08T01:41:38.193Z,80.00
2019-06-08T01:44:07.025Z,80.70
2019-06-08T01:46:36.103Z,80.90
2019-06-08T01:49:05.036Z,80.90
2019-06-08T01:51:33.749Z,80.40
2019-06-08T01:54:02.610Z,80.40
2019-06-08T01:56:31.325Z,79.90
2019-06-08T01:59:00.121Z,79.50
2019-06-08T02:01:29.932Z,79.60
2019-06-08T02:03:59.078Z,79.50
2019-06-08T02:06:28.420Z,79.40
2019-06-08T02:08:57.690Z,80.30
2019-06-08T02:11:26.713Z,79.70
2019-06-08T02:13:55.715Z,79.90
2019-06-08T02:16:25.668Z,80.00
2019-06-08T02:18:54.584Z,79.80
2019-06-08T02:21:23.373Z,80.10
2019-06-08T02:23:52.174Z,80.00
2019-06-08T02:26:20.912Z,80.30
2019-06-08T02:28:49.842Z,81.20
2019-06-08T02:31:18.961Z,80.60
2019-06-08T02:33:47.788Z,80.80
2019-06-08T02:36:16.599Z,80.50
2019-06-08T02:38:45.407Z,80.30
2019-06-08T02:41:14.142Z,80.10
2019-06-08T02:43:43.790Z,80.00
2019-06-08T02:46:12.570Z,80.40
2019-06-08T02:49:02.679Z,80.20
2019-06-08T02:51:13.468Z,80.80
2019-06-08T02:53:42.910Z,80.40
2019-06-08T02:56:14.907Z,81.40
2019-06-08T02:58:44.073Z,81.10
2019-06-08T03:01:14.827Z,80.60
2019-06-08T03:03:45.366Z,80.20
2019-06-08T03:06:15.270Z,80.00
2019-06-08T03:08:46.276Z,79.90
2019-06-08T03:11:18.062Z,80.10
2019-06-08T03:13:48.740Z,79.80
2019-06-08T03:16:17.810Z,79.80
2019-06-08T03:18:46.542Z,79.90
2019-06-08T03:21:15.506Z,79.60
2019-06-08T03:23:44.262Z,79.60
2019-06-08T03:26:13.002Z,79.50
2019-06-08T03:28:44.088Z,79.90
2019-06-08T03:31:12.375Z,80.00
2019-06-08T03:33:50.827Z,80.30
2019-06-08T03:36:11.601Z,80.00
2019-06-08T03:38:42.323Z,80.50
2019-06-08T03:41:11.108Z,80.20
2019-06-08T03:43:42.273Z,80.30
2019-06-08T03:46:11.321Z,80.30
2019-06-08T03:48:41.691Z,80.30
2019-06-08T03:51:10.688Z,80.00
2019-06-08T03:53:40.060Z,80.80
2019-06-08T03:56:09.371Z,80.20
2019-06-08T03:58:38.990Z,80.00
2019-06-08T04:01:09.403Z,80.10
2019-06-08T04:03:39.771Z,79.60
2019-06-08T04:06:08.642Z,79.30
2019-06-08T04:08:37.902Z,79.20
2019-06-08T04:11:07.878Z,79.40
2019-06-08T04:13:37.678Z,79.40
2019-06-08T04:16:07.041Z,79.50
2019-06-08T04:18:35.756Z,79.30
2019-06-08T04:21:04.745Z,79.10
2019-06-08T04:23:33.458Z,79.50
2019-06-08T04:26:02.286Z,79.20
2019-06-08T04:28:31.312Z,79.10
2019-06-08T04:31:00.080Z,78.90
2019-06-08T04:33:29.206Z,79.40
2019-06-08T04:35:58.325Z,79.00
2019-06-08T04:38:27.118Z,78.90
2019-06-08T04:40:55.972Z,78.90
2019-06-08T04:43:24.722Z,78.80
2019-06-08T04:45:53.559Z,78.80
2019-06-08T04:48:23.867Z,79.00
2019-06-08T04:50:52.623Z,79.50
2019-06-08T04:53:21.351Z,79.10
2019-06-08T04:55:50.087Z,79.40
2019-06-08T04:58:18.910Z,79.20
2019-06-08T05:00:50.215Z,79.70
2019-06-08T05:03:19.048Z,79.10
2019-06-08T05:05:51.131Z,78.90
2019-06-08T05:08:20.012Z,78.80
2019-06-08T05:10:49.728Z,78.90
2019-06-08T05:13:18.961Z,78.40
2019-06-08T05:15:50.211Z,78.80
2019-06-08T05:18:19.404Z,78.30
2019-06-08T05:20:50.846Z,78.40
2019-06-08T05:23:18.998Z,78.40
2019-06-08T05:25:47.833Z,78.50
2019-06-08T05:28:17.179Z,78.30
2019-06-08T05:30:46.006Z,78.20
2019-06-08T05:33:16.289Z,77.10
2019-06-08T05:35:45.524Z,76.60
2019-06-08T05:38:14.406Z,76.20
2019-06-08T05:40:43.721Z,75.90
2019-06-08T05:43:12.605Z,75.50
2019-06-08T05:45:41.636Z,75.50
2019-06-08T05:48:10.354Z,75.20
2019-06-08T05:50:54.587Z,75.30
2019-06-08T05:53:09.541Z,75.40
2019-06-08T05:55:39.692Z,74.40
2019-06-08T05:58:08.734Z,73.10
2019-06-08T06:00:37.824Z,73.40
2019-06-08T06:03:06.652Z,73.30
2019-06-08T06:05:35.385Z,73.10
2019-06-08T06:08:16.170Z,73.00
2019-06-08T06:10:34.674Z,72.70
2019-06-08T06:13:03.462Z,73.90
2019-06-08T06:15:32.216Z,73.20
2019-06-08T06:18:01.514Z,72.50
2019-06-08T06:20:30.264Z,72.30
2019-06-08T06:23:00.101Z,72.60
2019-06-08T06:25:29.801Z,71.80
2019-06-08T06:27:58.538Z,71.70
2019-06-08T06:30:27.949Z,71.10
2019-06-08T06:32:56.974Z,71.10
2019-06-08T06:35:25.841Z,70.60
2019-06-08T06:37:54.573Z,70.60
2019-06-08T06:40:23.505Z,70.60
2019-06-08T06:42:55.291Z,69.80
2019-06-08T06:45:24.588Z,69.90
2019-06-08T06:47:53.346Z,70.00
2019-06-08T06:50:22.430Z,67.80
2019-06-08T06:52:51.337Z,69.30
2019-06-08T06:55:20.046Z,69.40
2019-06-08T06:57:51.423Z,69.10
2019-06-08T07:00:29.951Z,68.80
2019-06-08T07:02:59.317Z,67.80
2019-06-08T07:05:28.043Z,67.70
2019-06-08T07:07:57.223Z,68.10
2019-06-08T07:10:26.650Z,69.10
2019-06-08T07:12:55.383Z,69.80
2019-06-08T07:15:27.991Z,67.10
2019-06-08T07:17:58.529Z,67.10
2019-06-08T07:20:27.757Z,67.50
2019-06-08T07:22:56.490Z,67.70
2019-06-08T07:25:25.797Z,65.90
2019-06-08T07:27:59.185Z,66.00
2019-06-08T07:30:28.187Z,65.20
2019-06-08T07:32:56.891Z,62.00
2019-06-08T07:35:29.096Z,61.00
2019-06-08T07:37:59.598Z,62.20
2019-06-08T07:40:28.684Z,63.30
2019-06-08T07:42:57.412Z,63.30
2019-06-08T07:45:26.432Z,61.40
2019-06-08T07:47:57.041Z,61.60
2019-06-08T07:50:25.926Z,60.60
2019-06-08T07:52:54.715Z,60.80
2019-06-08T07:55:23.523Z,59.10
2019-06-08T07:57:53.965Z,59.20
2019-06-08T08:00:22.949Z,58.20
2019-06-08T08:02:52.085Z,58.80
2019-06-08T08:05:20.892Z,59.80
2019-06-08T08:07:50.254Z,57.90
2019-06-08T08:10:19.683Z,57.30
2019-06-08T08:12:49.226Z,56.40
2019-06-08T08:15:19.078Z,55.30
2019-06-08T08:17:49.062Z,55.80
2019-06-08T08:20:18.131Z,54.30
2019-06-08T08:22:49.222Z,54.10
2019-06-08T08:25:19.496Z,55.00
2019-06-08T08:27:50.302Z,53.50
2019-06-08T08:30:20.350Z,54.30
2019-06-08T08:32:50.825Z,53.20
2019-06-08T08:35:20.324Z,53.30
2019-06-08T08:37:53.086Z,54.40
2019-06-08T08:40:20.039Z,53.40
2019-06-08T08:42:50.566Z,51.80
2019-06-08T08:45:20.157Z,51.20
2019-06-08T08:47:50.745Z,52.90
2019-06-08T08:50:19.533Z,52.30
2019-06-08T08:52:51.273Z,53.10
2019-06-08T08:55:21.025Z,50.10
2019-06-08T08:57:51.703Z,52.90
2019-06-08T09:00:21.333Z,52.80
2019-06-08T09:03:10.730Z,52.70
2019-06-08T09:05:20.985Z,50.80
2019-06-08T09:07:52.091Z,52.10
2019-06-08T09:10:21.379Z,53.00
2019-06-08T09:12:52.132Z,52.40
2019-06-08T09:15:20.821Z,53.60
2019-06-08T09:17:49.549Z,52.60
2019-06-08T09:20:19.652Z,52.30
2019-06-08T09:22:56.568Z,52.60
2019-06-08T09:25:19.104Z,52.30
2019-06-08T09:27:48.402Z,50.20
2019-06-08T09:30:18.278Z,51.70
2019-06-08T09:32:47.838Z,50.10
2019-06-08T09:35:18.745Z,51.10
2019-06-08T09:37:48.552Z,50.70
2019-06-08T09:40:17.935Z,51.10
2019-06-08T09:42:46.710Z,49.60
2019-06-08T09:45:18.047Z,51.00
2019-06-08T09:47:47.815Z,49.10
2019-06-08T09:50:18.557Z,51.20
2019-06-08T09:53:02.423Z,50.50
2019-06-08T09:55:21.425Z,52.60
2019-06-08T09:57:50.251Z,51.60
2019-06-08T10:00:22.216Z,53.40
2019-06-08T10:02:50.197Z,51.10
2019-06-08T10:05:19.094Z,49.90
2019-06-08T10:07:48.681Z,50.00
2019-06-08T10:10:18.303Z,49.60
2019-06-08T10:12:48.395Z,49.30
2019-06-08T10:15:21.716Z,50.20
2019-06-08T10:17:50.693Z,50.80
2019-06-08T10:20:19.875Z,51.50
2019-06-08T10:22:50.524Z,48.60
2019-06-08T10:25:19.226Z,49.10
2019-06-08T10:27:48.258Z,49.00
2019-06-08T10:30:18.666Z,49.30
2019-06-08T10:32:48.007Z,49.50
2019-06-08T10:35:21.006Z,50.30
2019-06-08T10:37:51.190Z,48.80
2019-06-08T10:40:19.717Z,49.90
2019-06-08T10:42:48.595Z,48.60
2019-06-08T10:45:18.908Z,49.40
2019-06-08T10:47:48.039Z,48.80
2019-06-08T10:50:19.224Z,48.80
2019-06-08T10:52:48.481Z,48.20
2019-06-08T10:55:18.144Z,49.70
2019-06-08T10:57:47.840Z,49.10
2019-06-08T11:00:24.033Z,49.80
2019-06-08T11:02:52.324Z,49.60
2019-06-08T11:05:21.722Z,49.30
2019-06-08T11:07:50.483Z,48.80
2019-06-08T11:10:19.421Z,50.50
2019-06-08T11:12:48.636Z,48.10
2019-06-08T11:15:17.736Z,48.00
2019-06-08T11:17:49.565Z,48.80
2019-06-08T11:20:18.378Z,49.30
2019-06-08T11:22:49.806Z,48.10
2019-06-08T11:25:19.861Z,48.30
2019-06-08T11:27:48.425Z,48.60
2019-06-08T11:30:23.461Z,47.50
2019-06-08T11:32:48.869Z,48.40
2019-06-08T11:35:18.160Z,49.20
2019-06-08T11:37:48.837Z,49.50
2019-06-08T11:40:20.486Z,48.90
2019-06-08T11:42:48.496Z,48.60
2019-06-08T11:45:17.970Z,48.60
2019-06-08T11:47:48.507Z,48.00
2019-06-08T11:50:22.505Z,48.20
2019-06-08T11:52:51.330Z,49.70
2019-06-08T11:55:20.114Z,48.70
2019-06-08T11:57:49.962Z,48.90
2019-06-08T12:00:31.194Z,49.00
2019-06-08T12:03:02.225Z,48.50
2019-06-08T12:05:31.182Z,48.40
2019-06-08T12:07:59.978Z,47.70
2019-06-08T12:10:29.033Z,47.20
2019-06-08T12:12:58.193Z,46.70
2019-06-08T12:15:28.659Z,47.80
2019-06-08T12:17:58.662Z,47.40
2019-06-08T12:20:28.058Z,47.50
2019-06-08T12:22:56.946Z,48.50
2019-06-08T12:25:25.719Z,48.10
2019-06-08T12:27:54.538Z,46.70
2019-06-08T12:30:26.269Z,45.50
2019-06-08T12:32:54.047Z,47.00
2019-06-08T12:35:22.785Z,47.70
2019-06-08T12:37:51.864Z,47.00
2019-06-08T12:40:21.165Z,47.90
2019-06-08T12:42:49.894Z,48.10
2019-06-08T12:45:20.433Z,48.30
2019-06-08T12:47:49.331Z,47.10
2019-06-08T12:50:18.429Z,48.40
2019-06-08T12:52:47.829Z,47.60
2019-06-08T12:55:22.621Z,46.30
2019-06-08T12:57:48.443Z,46.50
2019-06-08T13:00:20.112Z,47.00
2019-06-08T13:02:52.143Z,46.80
2019-06-08T13:05:22.856Z,47.10
2019-06-08T13:07:51.494Z,48.70
2019-06-08T13:10:24.071Z,46.40
2019-06-08T13:12:50.865Z,46.90
2019-06-08T13:15:21.869Z,46.10
2019-06-08T13:17:50.645Z,45.10
2019-06-08T13:20:22.318Z,44.80
2019-06-08T13:22:51.270Z,43.40
2019-06-08T13:25:36.130Z,46.00
2019-06-08T13:27:50.523Z,46.60
2019-06-08T13:30:25.939Z,44.90
2019-06-08T13:32:50.784Z,46.50
2019-06-08T13:35:22.327Z,45.80
2019-06-08T13:37:50.109Z,46.50
2019-06-08T13:40:21.899Z,46.50
2019-06-08T13:42:51.281Z,45.70
2019-06-08T13:45:21.763Z,42.30
2019-06-08T13:47:51.063Z,45.50
2019-06-08T13:50:22.221Z,45.30
2019-06-08T13:52:51.274Z,44.60
2019-06-08T13:55:37.645Z,44.50
2019-06-08T13:57:50.596Z,43.40
2019-06-08T14:00:28.669Z,42.90
2019-06-08T14:02:57.854Z,43.90
2019-06-08T14:05:31.256Z,42.40
2019-06-08T14:08:00.264Z,43.40
2019-06-08T14:10:38.520Z,41.80
2019-06-08T14:13:08.128Z,42.80
2019-06-08T14:15:38.057Z,42.60
2019-06-08T14:18:08.738Z,42.50
2019-06-08T14:20:38.567Z,43.10
2019-06-08T14:23:09.168Z,44.00
2019-06-08T14:25:49.774Z,42.50
2019-06-08T14:28:09.087Z,40.50
2019-06-08T14:30:37.984Z,42.80
2019-06-08T14:33:08.243Z,42.30
2019-06-08T14:35:37.401Z,41.40
2019-06-08T14:38:06.180Z,41.30
2019-06-08T14:40:37.433Z,41.80
2019-06-08T14:43:05.780Z,41.60
2019-06-08T14:45:37.642Z,41.40
2019-06-08T14:48:05.609Z,40.30
2019-06-08T14:50:34.665Z,40.70
2019-06-08T14:53:03.380Z,41.00
2019-06-08T14:55:34.218Z,39.40
2019-06-08T14:58:03.169Z,41.50
2019-06-08T15:00:32.041Z,39.90
2019-06-08T15:03:01.135Z,41.10
2019-06-08T15:05:32.199Z,41.50
2019-06-08T15:08:01.087Z,40.50
2019-06-08T15:10:31.280Z,39.20
2019-06-08T15:13:00.165Z,40.30
2019-06-08T15:15:31.777Z,40.50
2019-06-08T15:17:59.429Z,38.90
2019-06-08T15:20:28.684Z,41.30
2019-06-08T15:22:58.080Z,37.10
2019-06-08T15:25:29.533Z,37.60
2019-06-08T15:28:00.718Z,39.30
2019-06-08T15:30:30.669Z,38.60
2019-06-08T15:32:58.831Z,37.90
2019-06-08T15:35:27.843Z,36.60
2019-06-08T15:37:58.477Z,36.40
2019-06-08T15:40:27.807Z,36.40
2019-06-08T15:42:58.549Z,36.60
2019-06-08T15:45:30.909Z,33.20
2019-06-08T15:47:59.246Z,30.20
2019-06-08T15:50:28.439Z,30.00
2019-06-08T15:53:00.162Z,27.20
2019-06-08T15:55:31.204Z,26.30
2019-06-08T15:57:59.575Z,26.70
2019-06-08T16:00:30.998Z,25.90
2019-06-08T16:02:59.196Z,26.10
2019-06-08T16:05:27.965Z,26.90
2019-06-08T16:07:56.762Z,27.10
2019-06-08T16:10:26.275Z,24.80
2019-06-08T16:12:55.581Z,24.50
2019-06-08T16:15:24.863Z,25.70
2019-06-08T16:17:53.726Z,24.60
2019-06-08T16:20:25.336Z,23.80
2019-06-08T16:22:54.536Z,25.40
2019-06-08T16:25:23.241Z,25.00
2019-06-08T16:27:52.018Z,21.80
2019-06-08T16:30:21.116Z,22.70
2019-06-08T16:32:49.893Z,22.50
2019-06-08T16:35:18.767Z,22.60
2019-06-08T16:37:47.537Z,22.60
2019-06-08T16:40:16.859Z,21.60
2019-06-08T16:42:45.678Z,23.10
2019-06-08T16:45:14.754Z,22.10
2019-06-08T16:47:43.983Z,22.00
2019-06-08T16:50:24.237Z,18.90
2019-06-08T16:52:43.427Z,22.00
2019-06-08T16:55:12.577Z,22.30
2019-06-08T16:57:41.445Z,21.80
2019-06-08T17:00:30.751Z,21.40
2019-06-08T17:02:41.339Z,21.40
2019-06-08T17:05:10.340Z,23.80
2019-06-08T17:07:39.764Z,22.10
2019-06-08T17:10:09.365Z,22.60
2019-06-08T17:12:39.108Z,21.80
2019-06-08T17:15:08.161Z,21.80
2019-06-08T17:17:36.901Z,21.80
2019-06-08T17:20:06.448Z,23.10
2019-06-08T17:22:36.616Z,21.20
2019-06-08T17:25:08.224Z,20.70
2019-06-08T17:27:36.866Z,19.10
2019-06-08T17:30:08.542Z,20.90
2019-06-08T17:32:38.477Z,21.50
2019-06-08T17:35:08.323Z,21.70
2019-06-08T17:37:38.058Z,21.00
2019-06-08T17:40:07.819Z,22.30
2019-06-08T17:42:37.600Z,22.70
2019-06-08T17:45:07.237Z,22.30
2019-06-08T17:47:36.353Z,23.20
2019-06-08T17:50:06.282Z,24.30
2019-06-08T17:52:35.078Z,24.00
2019-06-08T17:55:04.358Z,24.40
2019-06-08T17:57:45.770Z,24.30
2019-06-08T18:00:04.564Z,25.20
2019-06-08T18:02:37.767Z,25.60
2019-06-08T18:05:07.008Z,24.60
2019-06-08T18:07:38.494Z,25.20
2019-06-08T18:10:07.277Z,24.90
2019-06-08T18:12:41.047Z,26.30
2019-06-08T18:15:09.685Z,25.80
2019-06-08T18:17:41.984Z,26.60
2019-06-08T18:20:11.151Z,27.10
2019-06-08T18:22:42.514Z,28.80
2019-06-08T18:25:10.784Z,28.70
2019-06-08T18:27:42.370Z,28.60
2019-06-08T18:30:11.935Z,29.10
2019-06-08T18:32:42.454Z,29.20
2019-06-08T18:35:11.725Z,29.30
2019-06-08T18:37:41.392Z,29.00
2019-06-08T18:40:13.005Z,29.90
2019-06-08T18:42:43.137Z,30.10
2019-06-08T18:45:13.788Z,31.00
2019-06-08T18:47:43.754Z,31.70
2019-06-08T18:50:13.173Z,32.70
2019-06-08T18:52:44.931Z,32.70
2019-06-08T18:55:13.549Z,32.70
2019-06-08T18:57:42.740Z,33.10
2019-06-08T19:00:13.360Z,33.40
2019-06-08T19:02:44.909Z,34.10
2019-06-08T19:05:13.203Z,34.20
2019-06-08T19:07:43.248Z,34.70
2019-06-08T19:10:17.266Z,34.70
2019-06-08T19:12:48.592Z,35.00
2019-06-08T19:15:19.680Z,35.30
2019-06-08T19:17:54.309Z,35.50
2019-06-08T19:20:18.893Z,35.90
2019-06-08T19:22:53.910Z,36.00
2019-06-08T19:25:18.106Z,36.00
2019-06-08T19:27:52.343Z,36.20
2019-06-08T19:30:20.046Z,36.40
2019-06-08T19:32:51.789Z,36.60
2019-06-08T19:35:18.786Z,37.20
2019-06-08T19:37:53.268Z,37.40
2019-06-08T19:40:18.837Z,37.60
2019-06-08T19:42:55.455Z,37.90
2019-06-08T19:45:18.254Z,38.10
2019-06-08T19:47:47.024Z,38.30
2019-06-08T19:50:17.243Z,38.80
2019-06-08T19:52:50.829Z,39.30
2019-06-08T19:55:18.084Z,38.90
2019-06-08T19:57:50.578Z,39.30
2019-06-08T20:00:18.759Z,39.60
2019-06-08T20:02:52.961Z,39.90
2019-06-08T20:05:18.833Z,40.40
2019-06-08T20:07:47.639Z,40.60
2019-06-08T20:10:17.590Z,41.00
2019-06-08T20:12:48.353Z,41.10
2019-06-08T20:15:18.494Z,42.30
2019-06-08T20:17:48.908Z,41.90
2019-06-08T20:20:18.549Z,42.30
2019-06-08T20:22:50.364Z,42.40
2019-06-08T20:25:18.758Z,42.70
2019-06-08T20:27:50.317Z,43.80
2019-06-08T20:30:19.021Z,44.80
2019-06-08T20:32:50.741Z,43.60
2019-06-08T20:35:19.379Z,44.30
2019-06-08T20:37:49.886Z,44.80
2019-06-08T20:40:19.699Z,44.70
2019-06-08T20:42:51.589Z,44.60
2019-06-08T20:45:19.069Z,44.70
2019-06-08T20:47:51.922Z,44.80
2019-06-08T20:50:18.767Z,45.40
2019-06-08T20:52:49.714Z,45.20
2019-06-08T20:55:21.359Z,45.20
2019-06-08T20:57:51.253Z,45.30
2019-06-08T21:00:20.750Z,45.70
2019-06-08T21:02:51.491Z,45.70
2019-06-08T21:05:20.021Z,46.00
2019-06-08T21:07:52.863Z,47.20
2019-06-08T21:10:23.819Z,46.90
2019-06-08T21:12:52.932Z,46.20
2019-06-08T21:15:22.229Z,46.40
2019-06-08T21:17:52.613Z,48.40
2019-06-08T21:20:25.340Z,47.50
2019-06-08T21:22:56.072Z,47.50
2019-06-08T21:25:27.962Z,47.40
2019-06-08T21:27:58.385Z,47.60
2019-06-08T21:30:28.469Z,47.30
2019-06-08T21:33:00.631Z,47.80
2019-06-08T21:35:30.291Z,48.40
2019-06-08T21:38:01.151Z,48.60
2019-06-08T21:40:30.662Z,48.00
2019-06-08T21:43:01.413Z,49.40
2019-06-08T21:45:30.258Z,50.40
2019-06-08T21:48:00.436Z,49.90
2019-06-08T21:50:29.709Z,51.20
2019-06-08T21:53:00.471Z,49.90
2019-06-08T21:55:28.953Z,49.60
2019-06-08T21:58:00.355Z,49.20
2019-06-08T22:00:39.284Z,48.90
2019-06-08T22:03:00.284Z,49.80
2019-06-08T22:05:29.080Z,49.10
2019-06-08T22:07:59.726Z,48.90
2019-06-08T22:10:28.646Z,49.30
2019-06-08T22:12:59.741Z,49.20
2019-06-08T22:15:28.631Z,49.20
2019-06-08T22:18:00.117Z,49.30
2019-06-08T22:20:28.239Z,50.20
2019-06-08T22:22:59.093Z,52.60
2019-06-08T22:25:28.430Z,51.50
2019-06-08T22:27:58.393Z,51.50
2019-06-08T22:30:38.307Z,51.40
2019-06-08T22:32:59.784Z,52.20
2019-06-08T22:35:28.936Z,52.10
2019-06-08T22:38:00.679Z,52.30
2019-06-08T22:40:29.368Z,53.60
2019-06-08T22:43:00.736Z,54.30
2019-06-08T22:45:28.975Z,53.50
2019-06-08T22:48:00.534Z,52.30
2019-06-08T22:50:28.402Z,52.10
2019-06-08T22:52:59.345Z,52.40
2019-06-08T22:55:28.278Z,52.00
2019-06-08T22:57:59.888Z,51.90
2019-06-08T23:00:28.168Z,51.80
2019-06-08T23:03:01.057Z,52.20
2019-06-08T23:05:28.285Z,51.90
2019-06-08T23:07:59.947Z,51.90
2019-06-08T23:10:28.099Z,51.70
2019-06-08T23:12:59.488Z,51.60
2019-06-08T23:15:30.155Z,51.30
2019-06-08T23:18:00.590Z,52.30
2019-06-08T23:20:29.778Z,51.70
2019-06-08T23:23:00.084Z,51.80
2019-06-08T23:25:29.494Z,51.80
2019-06-08T23:27:58.303Z,52.60
2019-06-08T23:30:27.699Z,52.00
2019-06-08T23:33:00.663Z,52.00
2019-06-08T23:35:27.581Z,52.30
2019-06-08T23:37:56.979Z,51.90
2019-06-08T23:40:27.297Z,51.90
2019-06-08T23:42:58.171Z,52.00
2019-06-08T23:45:27.213Z,52.00
2019-06-08T23:47:58.410Z,52.40
2019-06-08T23:50:27.213Z,52.10
2019-06-08T23:52:56.128Z,52.30
2019-06-08T23:55:27.467Z,52.60
2019-06-08T23:57:55.921Z,52.50
